sensor_id;sensor_type;location;lat;lon;timestamp;temperature;humidity
10459;DHT22;5277;48.722;8.736;2022-07-23T00:00:29;22.60;96.80
10459;DHT22;5277;48.722;8.736;2022-07-23T00:02:54;22.60;97.10
10459;DHT22;5277;48.722;8.736;2022-07-23T00:05:20;22.60;97.10
10459;DHT22;5277;48.722;8.736;2022-07-23T00:07:46;22.60;97.10
10459;DHT22;5277;48.722;8.736;2022-07-23T00:10:11;22.60;96.90
10459;DHT22;5277;48.722;8.736;2022-07-23T00:12:38;22.60;97.10
10459;DHT22;5277;48.722;8.736;2022-07-23T00:15:05;22.60;96.60
10459;DHT22;5277;48.722;8.736;2022-07-23T00:17:31;22.60;95.80
10459;DHT22;5277;48.722;8.736;2022-07-23T00:19:57;22.60;95.90
10459;DHT22;5277;48.722;8.736;2022-07-23T00:22:22;22.60;96.00
10459;DHT22;5277;48.722;8.736;2022-07-23T00:24:48;22.60;96.10
10459;DHT22;5277;48.722;8.736;2022-07-23T00:27:14;22.60;95.70
10459;DHT22;5277;48.722;8.736;2022-07-23T00:29:40;22.60;95.60
10459;DHT22;5277;48.722;8.736;2022-07-23T00:32:05;22.60;95.50
10459;DHT22;5277;48.722;8.736;2022-07-23T00:34:31;22.60;95.40
10459;DHT22;5277;48.722;8.736;2022-07-23T00:36:57;22.70;95.20
10459;DHT22;5277;48.722;8.736;2022-07-23T00:39:22;22.60;95.10
10459;DHT22;5277;48.722;8.736;2022-07-23T00:41:49;22.60;95.50
10459;DHT22;5277;48.722;8.736;2022-07-23T00:44:20;22.60;94.90
10459;DHT22;5277;48.722;8.736;2022-07-23T00:46:49;22.70;94.80
10459;DHT22;5277;48.722;8.736;2022-07-23T00:49:15;22.70;95.60
10459;DHT22;5277;48.722;8.736;2022-07-23T00:51:41;22.70;95.40
10459;DHT22;5277;48.722;8.736;2022-07-23T00:54:07;22.70;95.40
10459;DHT22;5277;48.722;8.736;2022-07-23T00:56:33;22.60;95.90
10459;DHT22;5277;48.722;8.736;2022-07-23T00:59:00;22.50;95.80
10459;DHT22;5277;48.722;8.736;2022-07-23T01:01:26;22.40;96.40
10459;DHT22;5277;48.722;8.736;2022-07-23T01:03:52;22.50;95.00
10459;DHT22;5277;48.722;8.736;2022-07-23T01:06:17;22.50;95.00
10459;DHT22;5277;48.722;8.736;2022-07-23T01:08:43;22.40;96.00
10459;DHT22;5277;48.722;8.736;2022-07-23T01:11:09;22.50;95.30
10459;DHT22;5277;48.722;8.736;2022-07-23T01:13:34;22.50;95.00
10459;DHT22;5277;48.722;8.736;2022-07-23T01:16:00;22.50;94.70
10459;DHT22;5277;48.722;8.736;2022-07-23T01:18:26;22.50;95.10
10459;DHT22;5277;48.722;8.736;2022-07-23T01:20:51;22.50;95.10
10459;DHT22;5277;48.722;8.736;2022-07-23T01:23:17;22.40;95.50
10459;DHT22;5277;48.722;8.736;2022-07-23T01:25:52;22.40;95.60
10459;DHT22;5277;48.722;8.736;2022-07-23T01:28:18;22.40;95.60
10459;DHT22;5277;48.722;8.736;2022-07-23T01:30:44;22.40;95.90
10459;DHT22;5277;48.722;8.736;2022-07-23T01:33:10;22.40;95.50
10459;DHT22;5277;48.722;8.736;2022-07-23T01:35:36;22.40;95.90
10459;DHT22;5277;48.722;8.736;2022-07-23T01:38:01;22.20;95.10
10459;DHT22;5277;48.722;8.736;2022-07-23T01:40:27;22.20;95.60
10459;DHT22;5277;48.722;8.736;2022-07-23T01:42:53;22.20;95.70
10459;DHT22;5277;48.722;8.736;2022-07-23T01:45:18;22.20;96.10
10459;DHT22;5277;48.722;8.736;2022-07-23T01:47:44;22.20;96.20
10459;DHT22;5277;48.722;8.736;2022-07-23T01:50:10;22.00;96.10
10459;DHT22;5277;48.722;8.736;2022-07-23T01:52:35;22.00;96.20
10459;DHT22;5277;48.722;8.736;2022-07-23T01:55:01;22.00;96.20
10459;DHT22;5277;48.722;8.736;2022-07-23T01:57:27;22.10;95.80
10459;DHT22;5277;48.722;8.736;2022-07-23T01:59:53;22.00;95.10
10459;DHT22;5277;48.722;8.736;2022-07-23T02:02:19;22.00;94.70
10459;DHT22;5277;48.722;8.736;2022-07-23T02:04:45;22.00;95.00
10459;DHT22;5277;48.722;8.736;2022-07-23T02:07:10;21.90;95.90
10459;DHT22;5277;48.722;8.736;2022-07-23T02:09:36;22.00;95.70
10459;DHT22;5277;48.722;8.736;2022-07-23T02:12:02;22.00;96.20
10459;DHT22;5277;48.722;8.736;2022-07-23T02:14:28;21.90;96.00
10459;DHT22;5277;48.722;8.736;2022-07-23T02:16:53;21.90;96.00
10459;DHT22;5277;48.722;8.736;2022-07-23T02:19:19;21.80;95.90
10459;DHT22;5277;48.722;8.736;2022-07-23T02:21:45;21.80;95.60
10459;DHT22;5277;48.722;8.736;2022-07-23T02:24:11;21.80;95.60
10459;DHT22;5277;48.722;8.736;2022-07-23T02:26:36;21.80;95.60
10459;DHT22;5277;48.722;8.736;2022-07-23T02:29:03;21.80;95.50
10459;DHT22;5277;48.722;8.736;2022-07-23T02:31:29;21.80;95.80
10459;DHT22;5277;48.722;8.736;2022-07-23T02:33:56;21.80;96.10
10459;DHT22;5277;48.722;8.736;2022-07-23T02:36:21;21.80;96.00
10459;DHT22;5277;48.722;8.736;2022-07-23T02:38:47;21.70;96.00
10459;DHT22;5277;48.722;8.736;2022-07-23T02:41:13;21.60;96.10
10459;DHT22;5277;48.722;8.736;2022-07-23T02:43:38;21.60;96.20
10459;DHT22;5277;48.722;8.736;2022-07-23T02:46:04;21.60;96.10
10459;DHT22;5277;48.722;8.736;2022-07-23T02:48:30;21.60;95.90
10459;DHT22;5277;48.722;8.736;2022-07-23T02:50:56;21.60;96.10
10459;DHT22;5277;48.722;8.736;2022-07-23T02:53:22;21.60;96.20
10459;DHT22;5277;48.722;8.736;2022-07-23T02:55:48;21.50;96.10
10459;DHT22;5277;48.722;8.736;2022-07-23T02:58:14;21.60;96.40
10459;DHT22;5277;48.722;8.736;2022-07-23T03:00:41;21.50;96.50
10459;DHT22;5277;48.722;8.736;2022-07-23T03:03:07;21.50;96.50
10459;DHT22;5277;48.722;8.736;2022-07-23T03:05:33;21.50;96.50
10459;DHT22;5277;48.722;8.736;2022-07-23T03:07:59;21.40;96.50
10459;DHT22;5277;48.722;8.736;2022-07-23T03:10:25;21.40;97.00
10459;DHT22;5277;48.722;8.736;2022-07-23T03:12:50;21.40;96.70
10459;DHT22;5277;48.722;8.736;2022-07-23T03:15:16;21.40;97.00
10459;DHT22;5277;48.722;8.736;2022-07-23T03:17:42;21.40;97.00
10459;DHT22;5277;48.722;8.736;2022-07-23T03:20:08;21.40;97.10
10459;DHT22;5277;48.722;8.736;2022-07-23T03:22:34;21.30;97.30
10459;DHT22;5277;48.722;8.736;2022-07-23T03:25:00;21.30;97.30
10459;DHT22;5277;48.722;8.736;2022-07-23T03:27:28;21.30;96.90
10459;DHT22;5277;48.722;8.736;2022-07-23T03:29:55;21.30;97.10
10459;DHT22;5277;48.722;8.736;2022-07-23T03:32:22;21.20;97.40
10459;DHT22;5277;48.722;8.736;2022-07-23T03:34:48;21.20;97.30
10459;DHT22;5277;48.722;8.736;2022-07-23T03:37:15;21.20;97.10
10459;DHT22;5277;48.722;8.736;2022-07-23T03:39:40;21.20;96.90
10459;DHT22;5277;48.722;8.736;2022-07-23T03:42:06;21.00;97.80
10459;DHT22;5277;48.722;8.736;2022-07-23T03:44:32;20.90;98.10
10459;DHT22;5277;48.722;8.736;2022-07-23T03:46:58;20.80;98.00
10459;DHT22;5277;48.722;8.736;2022-07-23T03:49:24;20.80;98.30
10459;DHT22;5277;48.722;8.736;2022-07-23T03:51:50;20.80;98.20
10459;DHT22;5277;48.722;8.736;2022-07-23T03:54:16;20.90;98.20
10459;DHT22;5277;48.722;8.736;2022-07-23T03:56:42;20.80;98.70
10459;DHT22;5277;48.722;8.736;2022-07-23T03:59:09;20.90;98.40
10459;DHT22;5277;48.722;8.736;2022-07-23T04:01:35;20.90;98.60
10459;DHT22;5277;48.722;8.736;2022-07-23T04:04:01;21.00;98.20
10459;DHT22;5277;48.722;8.736;2022-07-23T04:06:27;20.90;98.30
10459;DHT22;5277;48.722;8.736;2022-07-23T04:08:53;20.80;98.40
10459;DHT22;5277;48.722;8.736;2022-07-23T04:11:19;20.90;98.70
10459;DHT22;5277;48.722;8.736;2022-07-23T04:13:45;20.90;98.40
10459;DHT22;5277;48.722;8.736;2022-07-23T04:16:10;20.90;98.30
10459;DHT22;5277;48.722;8.736;2022-07-23T04:18:36;20.90;98.30
10459;DHT22;5277;48.722;8.736;2022-07-23T04:21:02;21.00;98.30
10459;DHT22;5277;48.722;8.736;2022-07-23T04:23:28;21.00;98.50
10459;DHT22;5277;48.722;8.736;2022-07-23T04:25:54;21.00;98.70
10459;DHT22;5277;48.722;8.736;2022-07-23T04:28:19;21.00;98.70
10459;DHT22;5277;48.722;8.736;2022-07-23T04:30:45;20.90;98.50
10459;DHT22;5277;48.722;8.736;2022-07-23T04:33:11;20.90;98.80
10459;DHT22;5277;48.722;8.736;2022-07-23T04:35:36;20.90;98.70
10459;DHT22;5277;48.722;8.736;2022-07-23T04:38:03;20.90;98.80
10459;DHT22;5277;48.722;8.736;2022-07-23T04:40:29;21.00;98.50
10459;DHT22;5277;48.722;8.736;2022-07-23T04:42:57;21.00;98.20
10459;DHT22;5277;48.722;8.736;2022-07-23T04:45:22;21.00;98.40
10459;DHT22;5277;48.722;8.736;2022-07-23T04:47:51;21.00;98.30
10459;DHT22;5277;48.722;8.736;2022-07-23T04:50:17;21.00;98.50
10459;DHT22;5277;48.722;8.736;2022-07-23T04:52:47;21.10;98.50
10459;DHT22;5277;48.722;8.736;2022-07-23T04:55:13;21.10;98.30
10459;DHT22;5277;48.722;8.736;2022-07-23T04:57:38;21.10;98.50
10459;DHT22;5277;48.722;8.736;2022-07-23T05:00:06;21.20;98.40
10459;DHT22;5277;48.722;8.736;2022-07-23T05:02:32;21.20;98.60
10459;DHT22;5277;48.722;8.736;2022-07-23T05:04:58;21.30;98.50
10459;DHT22;5277;48.722;8.736;2022-07-23T05:07:23;21.30;98.40
10459;DHT22;5277;48.722;8.736;2022-07-23T05:09:49;21.30;97.40
10459;DHT22;5277;48.722;8.736;2022-07-23T05:12:15;21.40;97.70
10459;DHT22;5277;48.722;8.736;2022-07-23T05:14:40;21.40;97.90
10459;DHT22;5277;48.722;8.736;2022-07-23T05:17:07;21.50;98.30
10459;DHT22;5277;48.722;8.736;2022-07-23T05:19:34;21.50;97.90
10459;DHT22;5277;48.722;8.736;2022-07-23T05:22:00;21.50;97.60
10459;DHT22;5277;48.722;8.736;2022-07-23T05:24:25;21.60;97.50
10459;DHT22;5277;48.722;8.736;2022-07-23T05:26:51;21.60;97.30
10459;DHT22;5277;48.722;8.736;2022-07-23T05:29:17;21.50;97.20
10459;DHT22;5277;48.722;8.736;2022-07-23T05:31:42;21.50;97.90
10459;DHT22;5277;48.722;8.736;2022-07-23T05:34:08;21.60;97.90
10459;DHT22;5277;48.722;8.736;2022-07-23T05:36:34;21.70;97.50
10459;DHT22;5277;48.722;8.736;2022-07-23T05:38:59;21.70;96.60
10459;DHT22;5277;48.722;8.736;2022-07-23T05:41:25;21.80;96.90
10459;DHT22;5277;48.722;8.736;2022-07-23T05:43:51;21.90;96.70
10459;DHT22;5277;48.722;8.736;2022-07-23T05:46:16;21.90;96.60
10459;DHT22;5277;48.722;8.736;2022-07-23T05:48:42;22.00;96.80
10459;DHT22;5277;48.722;8.736;2022-07-23T05:51:08;22.00;96.60
10459;DHT22;5277;48.722;8.736;2022-07-23T05:53:35;22.00;96.80
10459;DHT22;5277;48.722;8.736;2022-07-23T05:56:01;22.10;96.80
10459;DHT22;5277;48.722;8.736;2022-07-23T05:58:27;22.10;96.30
10459;DHT22;5277;48.722;8.736;2022-07-23T06:00:52;22.30;95.80
10459;DHT22;5277;48.722;8.736;2022-07-23T06:03:18;22.40;95.30
10459;DHT22;5277;48.722;8.736;2022-07-23T06:05:45;22.60;95.10
10459;DHT22;5277;48.722;8.736;2022-07-23T06:08:11;22.80;94.50
10459;DHT22;5277;48.722;8.736;2022-07-23T06:10:36;23.00;93.90
10459;DHT22;5277;48.722;8.736;2022-07-23T06:13:03;23.20;94.30
10459;DHT22;5277;48.722;8.736;2022-07-23T06:15:29;23.50;94.00
10459;DHT22;5277;48.722;8.736;2022-07-23T06:17:55;23.60;94.00
10459;DHT22;5277;48.722;8.736;2022-07-23T06:20:21;23.70;93.60
10459;DHT22;5277;48.722;8.736;2022-07-23T06:22:47;23.90;93.20
10459;DHT22;5277;48.722;8.736;2022-07-23T06:25:12;24.10;92.50
10459;DHT22;5277;48.722;8.736;2022-07-23T06:27:38;24.30;91.70
10459;DHT22;5277;48.722;8.736;2022-07-23T06:30:04;24.40;91.60
10459;DHT22;5277;48.722;8.736;2022-07-23T06:32:31;24.40;91.40
10459;DHT22;5277;48.722;8.736;2022-07-23T06:34:57;24.30;91.30
10459;DHT22;5277;48.722;8.736;2022-07-23T06:37:22;24.20;91.60
10459;DHT22;5277;48.722;8.736;2022-07-23T06:39:48;24.10;92.20
10459;DHT22;5277;48.722;8.736;2022-07-23T06:42:14;24.00;93.20
10459;DHT22;5277;48.722;8.736;2022-07-23T06:44:40;23.90;92.70
10459;DHT22;5277;48.722;8.736;2022-07-23T06:47:06;23.80;92.80
10459;DHT22;5277;48.722;8.736;2022-07-23T06:49:31;23.70;93.00
10459;DHT22;5277;48.722;8.736;2022-07-23T06:51:57;23.60;93.70
10459;DHT22;5277;48.722;8.736;2022-07-23T06:54:23;23.50;94.60
10459;DHT22;5277;48.722;8.736;2022-07-23T06:56:48;23.60;95.90
10459;DHT22;5277;48.722;8.736;2022-07-23T06:59:14;23.40;96.00
10459;DHT22;5277;48.722;8.736;2022-07-23T07:01:40;23.40;96.90
10459;DHT22;5277;48.722;8.736;2022-07-23T07:04:06;23.20;97.00
10459;DHT22;5277;48.722;8.736;2022-07-23T07:06:31;23.10;97.90
10459;DHT22;5277;48.722;8.736;2022-07-23T07:08:57;23.00;98.00
10459;DHT22;5277;48.722;8.736;2022-07-23T07:11:23;23.00;98.50
10459;DHT22;5277;48.722;8.736;2022-07-23T07:13:51;23.10;98.40
10459;DHT22;5277;48.722;8.736;2022-07-23T07:16:16;23.30;97.40
10459;DHT22;5277;48.722;8.736;2022-07-23T07:18:42;23.40;97.10
10459;DHT22;5277;48.722;8.736;2022-07-23T07:21:08;23.50;96.90
10459;DHT22;5277;48.722;8.736;2022-07-23T07:23:33;23.50;96.70
10459;DHT22;5277;48.722;8.736;2022-07-23T07:25:59;23.50;96.60
10459;DHT22;5277;48.722;8.736;2022-07-23T07:28:25;23.50;96.50
10459;DHT22;5277;48.722;8.736;2022-07-23T07:30:51;23.50;96.40
10459;DHT22;5277;48.722;8.736;2022-07-23T07:33:16;23.50;96.10
10459;DHT22;5277;48.722;8.736;2022-07-23T07:35:42;23.50;96.30
10459;DHT22;5277;48.722;8.736;2022-07-23T07:38:08;23.60;96.40
10459;DHT22;5277;48.722;8.736;2022-07-23T07:40:34;23.60;96.60
10459;DHT22;5277;48.722;8.736;2022-07-23T07:43:00;23.60;96.70
10459;DHT22;5277;48.722;8.736;2022-07-23T07:45:27;23.70;96.30
10459;DHT22;5277;48.722;8.736;2022-07-23T07:47:52;23.90;95.50
10459;DHT22;5277;48.722;8.736;2022-07-23T07:50:20;24.10;95.00
10459;DHT22;5277;48.722;8.736;2022-07-23T07:52:45;24.40;93.50
10459;DHT22;5277;48.722;8.736;2022-07-23T07:55:11;24.50;93.80
10459;DHT22;5277;48.722;8.736;2022-07-23T07:57:37;24.70;93.30
10459;DHT22;5277;48.722;8.736;2022-07-23T08:00:05;24.90;93.00
10459;DHT22;5277;48.722;8.736;2022-07-23T08:02:43;24.90;92.40
10459;DHT22;5277;48.722;8.736;2022-07-23T08:05:09;25.00;91.80
10459;DHT22;5277;48.722;8.736;2022-07-23T08:07:35;25.00;91.40
10459;DHT22;5277;48.722;8.736;2022-07-23T08:10:02;25.00;91.40
10459;DHT22;5277;48.722;8.736;2022-07-23T08:12:36;25.00;91.80
10459;DHT22;5277;48.722;8.736;2022-07-23T08:15:02;25.00;91.90
10459;DHT22;5277;48.722;8.736;2022-07-23T08:17:28;25.10;90.50
10459;DHT22;5277;48.722;8.736;2022-07-23T08:19:54;25.10;89.40
10459;DHT22;5277;48.722;8.736;2022-07-23T08:22:20;25.20;90.50
10459;DHT22;5277;48.722;8.736;2022-07-23T08:24:45;25.40;90.00
10459;DHT22;5277;48.722;8.736;2022-07-23T08:27:11;25.40;88.90
10459;DHT22;5277;48.722;8.736;2022-07-23T08:29:36;25.50;88.90
10459;DHT22;5277;48.722;8.736;2022-07-23T08:32:02;25.70;89.60
10459;DHT22;5277;48.722;8.736;2022-07-23T08:34:28;25.90;89.00
10459;DHT22;5277;48.722;8.736;2022-07-23T08:36:54;26.20;88.80
10459;DHT22;5277;48.722;8.736;2022-07-23T08:39:19;26.50;87.10
10459;DHT22;5277;48.722;8.736;2022-07-23T08:41:45;26.80;86.10
10459;DHT22;5277;48.722;8.736;2022-07-23T08:44:11;27.00;84.40
10459;DHT22;5277;48.722;8.736;2022-07-23T08:46:39;27.40;81.80
10459;DHT22;5277;48.722;8.736;2022-07-23T08:49:05;27.60;77.20
10459;DHT22;5277;48.722;8.736;2022-07-23T08:51:30;27.70;76.60
10459;DHT22;5277;48.722;8.736;2022-07-23T08:53:57;27.90;75.70
10459;DHT22;5277;48.722;8.736;2022-07-23T08:56:23;27.90;74.00
10459;DHT22;5277;48.722;8.736;2022-07-23T08:58:49;27.90;73.90
10459;DHT22;5277;48.722;8.736;2022-07-23T09:01:15;27.80;74.70
10459;DHT22;5277;48.722;8.736;2022-07-23T09:03:40;27.80;75.50
10459;DHT22;5277;48.722;8.736;2022-07-23T09:06:06;28.00;75.90
10459;DHT22;5277;48.722;8.736;2022-07-23T09:08:39;28.20;75.90
10459;DHT22;5277;48.722;8.736;2022-07-23T09:11:15;28.40;74.80
10459;DHT22;5277;48.722;8.736;2022-07-23T09:13:48;28.70;73.20
10459;DHT22;5277;48.722;8.736;2022-07-23T09:16:17;28.80;71.90
10459;DHT22;5277;48.722;8.736;2022-07-23T09:19:05;29.00;72.40
10459;DHT22;5277;48.722;8.736;2022-07-23T09:21:38;29.20;70.10
10459;DHT22;5277;48.722;8.736;2022-07-23T09:24:09;29.50;70.40
10459;DHT22;5277;48.722;8.736;2022-07-23T09:26:43;29.70;65.60
10459;DHT22;5277;48.722;8.736;2022-07-23T09:31:50;30.30;61.80
10459;DHT22;5277;48.722;8.736;2022-07-23T09:34:19;30.70;60.80
10459;DHT22;5277;48.722;8.736;2022-07-23T09:36:45;30.90;58.40
10459;DHT22;5277;48.722;8.736;2022-07-23T09:39:13;31.20;58.50
10459;DHT22;5277;48.722;8.736;2022-07-23T09:41:46;31.30;56.80
10459;DHT22;5277;48.722;8.736;2022-07-23T09:44:17;31.50;56.30
10459;DHT22;5277;48.722;8.736;2022-07-23T09:46:45;31.80;55.30
10459;DHT22;5277;48.722;8.736;2022-07-23T09:49:22;31.90;55.50
10459;DHT22;5277;48.722;8.736;2022-07-23T09:54:25;32.10;55.80
10459;DHT22;5277;48.722;8.736;2022-07-23T09:56:56;32.30;54.00
10459;DHT22;5277;48.722;8.736;2022-07-23T09:59:25;32.50;53.60
10459;DHT22;5277;48.722;8.736;2022-07-23T10:01:53;32.60;53.90
10459;DHT22;5277;48.722;8.736;2022-07-23T10:04:21;32.60;53.80
10459;DHT22;5277;48.722;8.736;2022-07-23T10:06:49;32.70;53.10
10459;DHT22;5277;48.722;8.736;2022-07-23T10:09:16;32.70;53.00
10459;DHT22;5277;48.722;8.736;2022-07-23T10:11:48;32.90;53.00
10459;DHT22;5277;48.722;8.736;2022-07-23T10:14:14;32.80;53.40
10459;DHT22;5277;48.722;8.736;2022-07-23T10:16:41;32.90;52.70
10459;DHT22;5277;48.722;8.736;2022-07-23T10:19:07;32.90;52.00
10459;DHT22;5277;48.722;8.736;2022-07-23T10:21:50;33.00;52.40
10459;DHT22;5277;48.722;8.736;2022-07-23T10:25:09;33.20;52.70
10459;DHT22;5277;48.722;8.736;2022-07-23T10:27:51;33.30;53.40
10459;DHT22;5277;48.722;8.736;2022-07-23T10:36:09;34.20;51.30
10459;DHT22;5277;48.722;8.736;2022-07-23T10:41:12;34.70;48.70
10459;DHT22;5277;48.722;8.736;2022-07-23T10:43:37;34.70;48.70
10459;DHT22;5277;48.722;8.736;2022-07-23T10:46:24;35.00;48.60
10459;DHT22;5277;48.722;8.736;2022-07-23T10:49:40;35.10;46.80
10459;DHT22;5277;48.722;8.736;2022-07-23T10:52:19;35.30;46.10
10459;DHT22;5277;48.722;8.736;2022-07-23T10:54:50;35.40;46.80
10459;DHT22;5277;48.722;8.736;2022-07-23T10:57:18;35.60;47.30
10459;DHT22;5277;48.722;8.736;2022-07-23T11:02:34;35.80;45.40
10459;DHT22;5277;48.722;8.736;2022-07-23T11:05:10;36.00;44.60
10459;DHT22;5277;48.722;8.736;2022-07-23T11:13:35;35.50;45.70
10459;DHT22;5277;48.722;8.736;2022-07-23T11:26:43;36.80;44.10
10459;DHT22;5277;48.722;8.736;2022-07-23T11:31:58;37.60;43.00
10459;DHT22;5277;48.722;8.736;2022-07-23T11:34:40;37.90;42.50
10459;DHT22;5277;48.722;8.736;2022-07-23T11:37:11;38.40;41.80
10459;DHT22;5277;48.722;8.736;2022-07-23T11:39:38;38.60;41.30
10459;DHT22;5277;48.722;8.736;2022-07-23T11:42:06;38.50;40.70
10459;DHT22;5277;48.722;8.736;2022-07-23T11:44:33;37.90;41.50
10459;DHT22;5277;48.722;8.736;2022-07-23T11:47:06;37.80;42.00
10459;DHT22;5277;48.722;8.736;2022-07-23T11:49:32;37.80;41.10
10459;DHT22;5277;48.722;8.736;2022-07-23T11:52:13;37.60;41.60
10459;DHT22;5277;48.722;8.736;2022-07-23T11:55:00;38.00;41.70
10459;DHT22;5277;48.722;8.736;2022-07-23T11:57:29;38.20;41.30
10459;DHT22;5277;48.722;8.736;2022-07-23T11:59:57;37.50;40.70
10459;DHT22;5277;48.722;8.736;2022-07-23T12:02:24;37.10;41.30
10459;DHT22;5277;48.722;8.736;2022-07-23T12:04:52;37.00;42.10
10459;DHT22;5277;48.722;8.736;2022-07-23T12:07:36;36.80;41.90
10459;DHT22;5277;48.722;8.736;2022-07-23T12:12:53;35.90;42.30
10459;DHT22;5277;48.722;8.736;2022-07-23T12:17:50;34.90;43.80
10459;DHT22;5277;48.722;8.736;2022-07-23T12:20:21;34.70;44.50
10459;DHT22;5277;48.722;8.736;2022-07-23T12:22:49;34.60;45.00
10459;DHT22;5277;48.722;8.736;2022-07-23T12:25:21;34.80;45.10
10459;DHT22;5277;48.722;8.736;2022-07-23T12:28:19;35.10;44.30
10459;DHT22;5277;48.722;8.736;2022-07-23T12:30:46;35.60;44.30
10459;DHT22;5277;48.722;8.736;2022-07-23T12:33:15;36.10;43.10
10459;DHT22;5277;48.722;8.736;2022-07-23T12:35:45;36.70;42.60
10459;DHT22;5277;48.722;8.736;2022-07-23T12:38:16;36.90;41.90
10459;DHT22;5277;48.722;8.736;2022-07-23T12:46:07;37.60;40.50
10459;DHT22;5277;48.722;8.736;2022-07-23T12:48:34;37.60;40.30
10459;DHT22;5277;48.722;8.736;2022-07-23T12:51:04;37.60;39.60
10459;DHT22;5277;48.722;8.736;2022-07-23T12:56:18;37.80;38.90
10459;DHT22;5277;48.722;8.736;2022-07-23T13:03:59;35.40;41.30
10459;DHT22;5277;48.722;8.736;2022-07-23T13:06:30;35.00;41.60
10459;DHT22;5277;48.722;8.736;2022-07-23T13:08:56;34.40;43.00
10459;DHT22;5277;48.722;8.736;2022-07-23T13:11:22;34.00;44.50
10459;DHT22;5277;48.722;8.736;2022-07-23T13:13:49;33.60;44.60
10459;DHT22;5277;48.722;8.736;2022-07-23T13:16:15;33.20;45.60
10459;DHT22;5277;48.722;8.736;2022-07-23T13:18:40;32.80;46.20
10459;DHT22;5277;48.722;8.736;2022-07-23T13:21:06;32.40;46.90
10459;DHT22;5277;48.722;8.736;2022-07-23T13:23:32;32.10;48.00
10459;DHT22;5277;48.722;8.736;2022-07-23T13:25:58;31.90;48.30
10459;DHT22;5277;48.722;8.736;2022-07-23T13:28:24;31.80;48.10
10459;DHT22;5277;48.722;8.736;2022-07-23T13:30:50;31.60;48.80
10459;DHT22;5277;48.722;8.736;2022-07-23T13:33:21;31.50;49.50
10459;DHT22;5277;48.722;8.736;2022-07-23T13:35:48;31.30;48.80
10459;DHT22;5277;48.722;8.736;2022-07-23T13:38:15;31.10;49.10
10459;DHT22;5277;48.722;8.736;2022-07-23T13:40:44;31.00;50.70
10459;DHT22;5277;48.722;8.736;2022-07-23T13:43:11;30.80;49.80
10459;DHT22;5277;48.722;8.736;2022-07-23T13:45:38;30.70;49.40
10459;DHT22;5277;48.722;8.736;2022-07-23T13:48:04;30.70;49.80
10459;DHT22;5277;48.722;8.736;2022-07-23T13:50:30;30.60;51.10
10459;DHT22;5277;48.722;8.736;2022-07-23T13:52:56;30.50;50.00
10459;DHT22;5277;48.722;8.736;2022-07-23T13:55:22;30.40;50.60
10459;DHT22;5277;48.722;8.736;2022-07-23T13:57:47;30.40;50.80
10459;DHT22;5277;48.722;8.736;2022-07-23T14:00:14;30.40;49.40
10459;DHT22;5277;48.722;8.736;2022-07-23T14:02:40;30.30;50.20
10459;DHT22;5277;48.722;8.736;2022-07-23T14:05:08;30.30;50.40
10459;DHT22;5277;48.722;8.736;2022-07-23T14:07:35;30.20;49.60
10459;DHT22;5277;48.722;8.736;2022-07-23T14:10:03;30.30;50.30
10459;DHT22;5277;48.722;8.736;2022-07-23T14:12:30;30.30;51.20
10459;DHT22;5277;48.722;8.736;2022-07-23T14:14:56;30.20;50.10
10459;DHT22;5277;48.722;8.736;2022-07-23T14:17:22;30.20;50.60
10459;DHT22;5277;48.722;8.736;2022-07-23T14:19:47;30.20;54.20
10459;DHT22;5277;48.722;8.736;2022-07-23T14:22:13;30.20;51.20
10459;DHT22;5277;48.722;8.736;2022-07-23T14:24:39;30.10;50.30
10459;DHT22;5277;48.722;8.736;2022-07-23T14:27:05;30.00;51.60
10459;DHT22;5277;48.722;8.736;2022-07-23T14:29:31;30.00;50.40
10459;DHT22;5277;48.722;8.736;2022-07-23T14:31:58;30.00;51.20
10459;DHT22;5277;48.722;8.736;2022-07-23T14:34:24;30.00;52.00
10459;DHT22;5277;48.722;8.736;2022-07-23T14:36:51;30.00;50.90
10459;DHT22;5277;48.722;8.736;2022-07-23T14:39:17;30.10;49.20
10459;DHT22;5277;48.722;8.736;2022-07-23T14:41:42;30.20;52.50
10459;DHT22;5277;48.722;8.736;2022-07-23T14:44:08;30.10;50.30
10459;DHT22;5277;48.722;8.736;2022-07-23T14:46:34;30.20;50.70
10459;DHT22;5277;48.722;8.736;2022-07-23T14:48:59;30.30;51.80
10459;DHT22;5277;48.722;8.736;2022-07-23T14:51:25;30.30;52.40
10459;DHT22;5277;48.722;8.736;2022-07-23T14:53:51;30.20;50.70
10459;DHT22;5277;48.722;8.736;2022-07-23T14:56:17;30.10;50.30
10459;DHT22;5277;48.722;8.736;2022-07-23T14:58:43;30.10;49.70
10459;DHT22;5277;48.722;8.736;2022-07-23T15:01:09;30.00;50.80
10459;DHT22;5277;48.722;8.736;2022-07-23T15:03:34;29.90;51.60
10459;DHT22;5277;48.722;8.736;2022-07-23T15:06:00;29.70;54.00
10459;DHT22;5277;48.722;8.736;2022-07-23T15:08:26;29.60;51.40
10459;DHT22;5277;48.722;8.736;2022-07-23T15:10:51;29.60;52.40
10459;DHT22;5277;48.722;8.736;2022-07-23T15:13:18;29.50;53.50
10459;DHT22;5277;48.722;8.736;2022-07-23T15:15:44;29.40;53.70
10459;DHT22;5277;48.722;8.736;2022-07-23T15:18:10;29.40;54.10
10459;DHT22;5277;48.722;8.736;2022-07-23T15:20:36;29.30;53.70
10459;DHT22;5277;48.722;8.736;2022-07-23T15:23:04;29.20;52.90
10459;DHT22;5277;48.722;8.736;2022-07-23T15:25:30;29.20;52.50
10459;DHT22;5277;48.722;8.736;2022-07-23T15:27:57;29.10;52.80
10459;DHT22;5277;48.722;8.736;2022-07-23T15:30:25;29.10;53.20
10459;DHT22;5277;48.722;8.736;2022-07-23T15:32:51;29.10;53.60
10459;DHT22;5277;48.722;8.736;2022-07-23T15:35:17;29.10;55.20
10459;DHT22;5277;48.722;8.736;2022-07-23T15:37:42;29.10;53.90
10459;DHT22;5277;48.722;8.736;2022-07-23T15:40:09;29.20;53.80
10459;DHT22;5277;48.722;8.736;2022-07-23T15:42:35;29.20;54.30
10459;DHT22;5277;48.722;8.736;2022-07-23T15:45:01;29.20;52.90
10459;DHT22;5277;48.722;8.736;2022-07-23T15:47:27;29.20;53.50
10459;DHT22;5277;48.722;8.736;2022-07-23T15:49:53;29.30;53.70
10459;DHT22;5277;48.722;8.736;2022-07-23T15:52:18;29.30;53.30
10459;DHT22;5277;48.722;8.736;2022-07-23T15:54:44;29.30;54.30
10459;DHT22;5277;48.722;8.736;2022-07-23T15:57:10;29.20;54.00
10459;DHT22;5277;48.722;8.736;2022-07-23T15:59:36;29.20;54.80
10459;DHT22;5277;48.722;8.736;2022-07-23T16:02:02;29.20;54.80
10459;DHT22;5277;48.722;8.736;2022-07-23T16:04:28;29.20;54.50
10459;DHT22;5277;48.722;8.736;2022-07-23T16:06:54;29.10;54.60
10459;DHT22;5277;48.722;8.736;2022-07-23T16:09:19;29.10;55.20
10459;DHT22;5277;48.722;8.736;2022-07-23T16:11:45;29.10;54.80
10459;DHT22;5277;48.722;8.736;2022-07-23T16:14:11;29.00;55.50
10459;DHT22;5277;48.722;8.736;2022-07-23T16:16:36;29.00;54.80
10459;DHT22;5277;48.722;8.736;2022-07-23T16:19:03;29.10;55.30
10459;DHT22;5277;48.722;8.736;2022-07-23T16:21:28;29.10;54.60
10459;DHT22;5277;48.722;8.736;2022-07-23T16:23:54;29.10;55.10
10459;DHT22;5277;48.722;8.736;2022-07-23T16:26:20;29.10;55.10
10459;DHT22;5277;48.722;8.736;2022-07-23T16:28:46;29.10;55.60
10459;DHT22;5277;48.722;8.736;2022-07-23T16:31:12;29.10;55.80
10459;DHT22;5277;48.722;8.736;2022-07-23T16:33:39;29.10;55.60
10459;DHT22;5277;48.722;8.736;2022-07-23T16:36:05;29.10;56.30
10459;DHT22;5277;48.722;8.736;2022-07-23T16:38:34;29.20;56.40